METAR Data
IDs: Format: Raw Decoded Include TAF

Data at: 1318 UTC 07 Jul 2020

KPVU 071256Z 13008KT 10SM CLR 21/00 A2993 RMK AO2 SLP066 T02060000
KPVU 071156Z AUTO 11006KT 10SM CLR 17/04 A2993 RMK AO2 SLP069 T01720039 10239 20172 53003
KPVU 071056Z AUTO 10008KT 10SM CLR 18/03 A2992 RMK AO2 SLP064 T01830028
KPVU 070956Z AUTO 10SM CLR 21/05 A2992 RMK AO2 SLP060 T02110050 $
KPVU 070856Z AUTO 14008KT 10SM CLR 22/04 A2991 RMK AO2 SLP059 T02170044 51003
KPVU 070756Z AUTO 13009KT 10SM CLR 24/06 A2991 RMK AO2 SLP058 T02390056
KPVU 070656Z AUTO 14010KT 10SM CLR 22/08 A2991 RMK AO2 SLP061 T02220078 403670144
KPVU 070556Z AUTO 13008KT 10SM CLR 23/09 A2990 RMK AO2 SLP065 T02280094 10367 20206 51014
KPVU 070456Z AUTO 15004KT 10SM CLR 24/09 A2989 RMK AO2 SLP059 T02440094
KPVU 070356Z AUTO 31003KT 10SM CLR 28/13 A2987 RMK AO2 SLP049 T02780128
KPVU 070256Z AUTO 32009KT 10SM CLR 28/15 A2985 RMK AO2 SLP048 T02780150 56013
KPVU 070156Z 00000KT 10SM FEW120 36/M01 A2986 RMK AO2 SLP042 T03561011
KPVU 070056Z 00000KT 10SM FEW120 36/M03 A2988 RMK AO2 SLP048 T03611028
KPVU 062356Z 00000KT 10SM SCT120 36/M03 A2990 RMK AO2 SLP061 T03611033 10367 20272 58021
KPVU 062256Z 00000KT 10SM SCT120 36/M03 A2993 RMK AO2 SLP071 T03611028
KPVU 062156Z 26004KT 10SM FEW120 36/M01 A2995 RMK AO2 SLP079 T03611011
KPVU 062056Z 11007KT 10SM FEW120 36/M02 A2997 RMK AO2 SLP082 T03611017 58022
KPVU 061956Z VRB03KT 10SM FEW120 34/01 A3000 RMK AO2 SLP092 T03390011
KPVU 061856Z 13004KT 10SM FEW120 33/02 A3003 RMK AO2 SLP103 T03330022
KPVU 061756Z 28004KT 10SM FEW120 27/07 A3005 RMK AO2 SLP116 T02720072 10278 20150 56006
KPVU 061656Z VRB03KT 10SM FEW120 26/07 A3005 RMK AO2 SLP118 T02610072
KPVU 061556Z 00000KT 10SM CLR 25/06 A3006 RMK AO2 SLP119 T02500056
KPVU 061456Z 09004KT 10SM CLR 22/06 A3007 RMK AO2 SLP124 T02220056 51012
KPVU 061356Z 19005KT 10SM CLR 21/04 A3006 RMK AO2 SLP115 T02060039
KPVU 061256Z AUTO VRB04KT 10SM CLR 19/04 A3004 RMK AO2 SLP111 T01940039
KPVU 061156Z AUTO 00000KT 10SM CLR 16/06 A3003 RMK AO2 SLP108 T01610061 10217 20144 53007
KPVU 061056Z AUTO 14004KT 10SM CLR 15/07 A3002 RMK AO2 SLP107 T01500072
KPVU 060956Z AUTO 00000KT 10SM CLR 16/07 A3001 RMK AO2 SLP101 T01610072
KPVU 060856Z AUTO 15003KT 10SM CLR 19/06 A3000 RMK AO2 SLP095 T01940056 53007
KPVU 060756Z AUTO 00000KT 10SM CLR 21/08 A2999 RMK AO2 SLP094 T02060078
KPVU 060656Z AUTO 09005KT 10SM CLR 20/08 A2998 RMK AO2 SLP092 T02000078 403500122
KPVU 060556Z AUTO VRB04KT 10SM CLR 21/07 A2998 RMK AO2 SLP093 T02110072 10339 20211 50003
KPVU 060456Z AUTO 15007KT 10SM CLR 22/11 A2998 RMK AO2 SLP093 T02220106
KPVU 060356Z AUTO 10004KT 10SM CLR 25/13 A2997 RMK AO2 SLP088 T02500133
KPVU 060256Z AUTO 32008KT 10SM CLR 27/16 A2997 RMK AO2 SLP089 T02670161 56004
KPVU 060156Z 33011KT 10SM CLR 31/09 A2997 RMK AO2 SLP088 T03110094